createdAt,value
2023-05-06T00:01:41.461Z,4.80
2023-05-06T00:04:34.190Z,5.70
2023-05-06T00:07:26.230Z,5.20
2023-05-06T00:10:00.504Z,5.70
2023-05-06T00:12:52.509Z,4.20
2023-05-06T00:15:44.540Z,4.10
2023-05-06T00:18:36.611Z,5.30
2023-05-06T00:21:28.652Z,5.00
2023-05-06T00:24:20.605Z,3.90
2023-05-06T00:27:12.556Z,4.20
2023-05-06T00:30:04.912Z,4.50
2023-05-06T00:32:57.081Z,6.10
2023-05-06T00:35:49.235Z,5.20
2023-05-06T00:38:41.198Z,4.70
2023-05-06T00:41:35.499Z,5.50
2023-05-06T00:44:27.579Z,7.30
2023-05-06T00:47:21.899Z,4.60
2023-05-06T00:50:14.272Z,6.20
2023-05-06T00:52:49.173Z,6.40
2023-05-06T00:55:42.339Z,4.90
2023-05-06T00:58:34.619Z,4.70
2023-05-06T01:01:12.510Z,4.90
2023-05-06T01:04:04.803Z,5.40
2023-05-06T01:07:05.828Z,6.00
2023-05-06T01:09:56.139Z,4.90
2023-05-06T01:12:38.506Z,5.90
2023-05-06T01:15:37.699Z,6.70
2023-05-06T01:18:17.064Z,7.20
2023-05-06T01:21:10.379Z,6.70
2023-05-06T01:24:02.543Z,7.70
2023-05-06T01:26:54.550Z,4.00
2023-05-06T01:29:48.203Z,5.40
2023-05-06T01:32:40.117Z,8.10
2023-05-06T01:35:40.685Z,5.70
2023-05-06T01:38:40.631Z,4.20
2023-05-06T01:41:35.023Z,5.40
2023-05-06T01:44:28.611Z,6.40
2023-05-06T01:47:12.394Z,4.80
2023-05-06T01:50:05.563Z,5.10
2023-05-06T01:53:03.563Z,4.40
2023-05-06T01:55:55.628Z,4.90
2023-05-06T01:58:47.611Z,5.10
2023-05-06T02:01:39.635Z,5.50
2023-05-06T02:04:31.719Z,5.10
2023-05-06T02:07:23.726Z,5.60
2023-05-06T02:10:15.725Z,5.80
2023-05-06T02:13:07.885Z,4.60
2023-05-06T02:15:42.865Z,5.00
2023-05-06T02:18:35.050Z,4.90
2023-05-06T02:21:27.791Z,5.50
2023-05-06T02:24:19.802Z,8.00
2023-05-06T02:27:11.744Z,6.50
2023-05-06T02:29:46.439Z,6.30
2023-05-06T02:32:38.404Z,6.80
2023-05-06T02:35:30.430Z,3.60
2023-05-06T02:38:05.303Z,4.80
2023-05-06T02:40:57.272Z,4.60
2023-05-06T02:43:49.799Z,8.20
2023-05-06T02:46:43.570Z,5.20
2023-05-06T02:49:35.739Z,5.30
2023-05-06T02:52:27.862Z,5.60
2023-05-06T02:55:21.255Z,5.80
2023-05-06T02:58:13.274Z,8.30
2023-05-06T03:01:05.378Z,7.10
2023-05-06T03:03:57.434Z,6.10
2023-05-06T03:06:49.419Z,8.30
2023-05-06T03:09:30.010Z,5.80
2023-05-06T03:12:21.987Z,4.70
2023-05-06T03:15:14.598Z,5.40
2023-05-06T03:18:06.610Z,4.40
2023-05-06T03:20:58.759Z,4.30
2023-05-06T03:23:36.388Z,6.70
2023-05-06T03:26:28.442Z,5.00
2023-05-06T03:29:20.521Z,5.30
2023-05-06T03:32:12.414Z,7.10
2023-05-06T03:35:04.789Z,6.20
2023-05-06T03:37:56.912Z,4.40
2023-05-06T03:40:49.024Z,5.70
2023-05-06T03:43:41.066Z,5.30
2023-05-06T03:46:33.267Z,4.30
2023-05-06T03:49:14.506Z,5.80
2023-05-06T03:51:56.957Z,5.10
2023-05-06T03:54:33.978Z,3.90
2023-05-06T03:57:25.969Z,5.60
2023-05-06T04:00:18.842Z,6.00
2023-05-06T04:02:53.542Z,5.00
2023-05-06T04:05:46.447Z,6.30
2023-05-06T04:08:38.529Z,5.90
2023-05-06T04:11:31.046Z,6.50
2023-05-06T04:14:23.030Z,8.20
2023-05-06T04:17:15.112Z,6.20
2023-05-06T04:20:11.335Z,4.40
2023-05-06T04:23:04.125Z,5.50
2023-05-06T04:25:48.788Z,4.20
2023-05-06T04:28:37.638Z,5.40
2023-05-06T04:31:29.751Z,4.90
2023-05-06T04:34:21.893Z,5.20
2023-05-06T04:37:02.779Z,5.20
2023-05-06T04:39:55.818Z,6.00
2023-05-06T04:42:47.787Z,3.90
2023-05-06T04:45:40.172Z,6.30
2023-05-06T04:48:32.201Z,6.30
2023-05-06T04:51:24.185Z,6.30
2023-05-06T04:54:05.130Z,5.00
2023-05-06T04:56:57.214Z,4.20
2023-05-06T04:59:39.486Z,6.30
2023-05-06T05:02:31.569Z,5.70
2023-05-06T05:05:23.560Z,4.80
2023-05-06T05:08:15.627Z,4.00
2023-05-06T05:11:08.535Z,5.00
2023-05-06T05:14:02.116Z,5.90
2023-05-06T05:16:54.774Z,5.20
2023-05-06T05:19:46.766Z,4.50
2023-05-06T05:22:21.752Z,5.00
2023-05-06T05:25:14.302Z,6.60
2023-05-06T05:28:06.873Z,6.70
2023-05-06T05:31:04.852Z,5.00
2023-05-06T05:33:57.126Z,4.80
2023-05-06T05:36:49.165Z,6.50
2023-05-06T05:39:41.148Z,4.30
2023-05-06T05:42:33.754Z,4.70
2023-05-06T05:45:25.795Z,5.50
2023-05-06T05:48:17.925Z,4.00
2023-05-06T05:51:09.981Z,4.50
2023-05-06T05:54:01.958Z,7.70
2023-05-06T05:56:36.657Z,8.10
2023-05-06T05:59:28.768Z,4.80
2023-05-06T06:02:06.100Z,5.30
2023-05-06T06:04:58.348Z,5.30
2023-05-06T06:07:37.730Z,5.00
2023-05-06T06:10:29.911Z,5.30
2023-05-06T06:13:07.131Z,5.30
2023-05-06T06:15:49.532Z,6.70
2023-05-06T06:18:41.540Z,5.90
2023-05-06T06:21:33.619Z,5.50
2023-05-06T06:24:25.814Z,7.70
2023-05-06T06:27:17.904Z,7.20
2023-05-06T06:30:11.666Z,8.20
2023-05-06T06:32:52.007Z,8.40
2023-05-06T06:35:44.032Z,8.30
2023-05-06T06:38:35.997Z,8.40
2023-05-06T06:41:29.244Z,14.30
2023-05-06T06:44:21.219Z,7.20
2023-05-06T06:46:58.229Z,7.30
2023-05-06T06:49:50.504Z,7.60
2023-05-06T06:52:42.474Z,7.90
2023-05-06T06:55:34.518Z,7.40
2023-05-06T06:58:26.501Z,9.50
2023-05-06T07:01:18.487Z,7.40
2023-05-06T07:04:10.534Z,8.90
2023-05-06T07:07:02.614Z,5.70
2023-05-06T07:09:54.821Z,5.30
2023-05-06T07:12:46.959Z,6.10
2023-05-06T07:15:39.755Z,7.80
2023-05-06T07:18:31.837Z,4.60
2023-05-06T07:21:23.939Z,6.60
2023-05-06T07:24:15.978Z,6.20
2023-05-06T07:27:08.044Z,5.90
2023-05-06T07:30:00.152Z,6.80
2023-05-06T07:32:52.345Z,6.10
2023-05-06T07:35:44.306Z,8.90
2023-05-06T07:38:26.595Z,3.60
2023-05-06T07:41:18.546Z,8.00
2023-05-06T07:44:10.835Z,5.40
2023-05-06T07:47:03.105Z,7.30
2023-05-06T07:49:55.202Z,5.50
2023-05-06T07:52:47.218Z,5.40
2023-05-06T07:55:39.147Z,8.00
2023-05-06T07:58:31.353Z,5.40
2023-05-06T08:01:23.475Z,6.70
2023-05-06T08:04:15.615Z,12.20
2023-05-06T08:07:08.416Z,8.60
2023-05-06T08:10:00.437Z,7.50
2023-05-06T08:12:52.475Z,7.20
2023-05-06T08:15:44.559Z,6.80
2023-05-06T08:18:36.883Z,7.40
2023-05-06T08:21:17.816Z,5.50
2023-05-06T08:24:10.507Z,4.00
2023-05-06T08:27:11.126Z,4.70
2023-05-06T08:30:03.105Z,9.50
2023-05-06T08:32:55.085Z,7.70
2023-05-06T08:35:47.758Z,7.00
2023-05-06T08:38:39.741Z,5.20
2023-05-06T08:41:21.236Z,5.30
2023-05-06T08:44:19.195Z,6.20
2023-05-06T08:47:11.377Z,6.10
2023-05-06T08:50:03.569Z,5.30
2023-05-06T08:52:55.613Z,12.60
2023-05-06T08:55:38.562Z,7.50
2023-05-06T08:58:15.684Z,7.90
2023-05-06T09:01:07.911Z,7.50
2023-05-06T09:04:00.820Z,7.30
2023-05-06T09:06:52.802Z,5.80
2023-05-06T09:09:44.898Z,7.00
2023-05-06T09:12:40.504Z,5.80
2023-05-06T09:15:42.247Z,7.90
2023-05-06T09:18:17.804Z,6.10
2023-05-06T09:21:09.844Z,5.00
2023-05-06T09:23:52.233Z,8.70
2023-05-06T09:26:46.116Z,6.10
2023-05-06T09:29:38.109Z,6.30
2023-05-06T09:32:30.358Z,7.60
2023-05-06T09:35:22.445Z,7.00
2023-05-06T09:37:55.593Z,6.90
2023-05-06T09:40:47.643Z,4.70
2023-05-06T09:43:42.119Z,7.90
2023-05-06T09:46:34.559Z,7.00
2023-05-06T09:49:27.331Z,6.80
2023-05-06T09:52:20.762Z,5.80
2023-05-06T09:55:13.698Z,6.10
2023-05-06T09:58:06.321Z,6.70
2023-05-06T10:00:58.789Z,8.00
2023-05-06T10:03:54.298Z,10.20
2023-05-06T10:06:49.719Z,8.70
2023-05-06T10:12:33.669Z,9.10
2023-05-06T10:15:27.056Z,12.30
2023-05-06T10:18:21.181Z,11.10
2023-05-06T10:21:27.385Z,10.90
2023-05-06T10:24:24.566Z,9.20
2023-05-06T10:27:24.483Z,9.60
2023-05-06T10:30:17.762Z,7.70
2023-05-06T10:33:11.822Z,9.40
2023-05-06T10:36:12.965Z,10.20
2023-05-06T10:39:07.293Z,10.50
2023-05-06T10:41:59.688Z,10.20
2023-05-06T10:45:00.768Z,7.10
2023-05-06T10:48:12.632Z,16.30
2023-05-06T10:50:47.268Z,11.90
2023-05-06T10:54:00.030Z,11.70
2023-05-06T10:57:10.174Z,10.80
2023-05-06T11:00:02.255Z,13.00
2023-05-06T11:02:47.491Z,12.20
2023-05-06T11:05:51.568Z,13.70
2023-05-06T11:08:46.422Z,8.90
2023-05-06T11:12:00.414Z,10.50
2023-05-06T11:14:52.478Z,11.70
2023-05-06T11:17:44.550Z,11.60
2023-05-06T11:20:37.090Z,14.70
2023-05-06T11:23:19.001Z,11.70
2023-05-06T11:26:12.337Z,12.50
2023-05-06T11:29:05.479Z,11.30
2023-05-06T11:31:57.542Z,12.50
2023-05-06T11:34:49.586Z,13.60
2023-05-06T11:37:29.674Z,11.70
2023-05-06T11:40:22.221Z,12.50
2023-05-06T11:43:15.731Z,10.00
2023-05-06T11:45:51.135Z,11.40
2023-05-06T11:48:26.037Z,8.80
2023-05-06T11:51:22.532Z,10.30
2023-05-06T11:54:16.399Z,11.10
2023-05-06T11:57:08.488Z,10.30
2023-05-06T12:00:00.389Z,11.30
2023-05-06T12:02:57.818Z,11.70
2023-05-06T12:05:50.800Z,12.90
2023-05-06T12:08:28.615Z,10.70
2023-05-06T12:11:21.115Z,12.60
2023-05-06T12:14:06.092Z,13.10
2023-05-06T12:16:58.187Z,15.50
2023-05-06T12:19:32.479Z,17.10
2023-05-06T12:22:25.588Z,13.50
2023-05-06T12:25:18.901Z,14.50
2023-05-06T12:28:22.204Z,14.90
2023-05-06T12:31:20.630Z,13.40
2023-05-06T12:34:12.696Z,14.60
2023-05-06T12:37:04.620Z,14.70
2023-05-06T12:39:59.161Z,12.50
2023-05-06T12:42:57.511Z,12.90
2023-05-06T12:46:05.714Z,11.40
2023-05-06T12:49:02.376Z,12.40
2023-05-06T12:55:03.235Z,10.20
2023-05-06T12:57:57.203Z,8.40
2023-05-06T13:00:50.106Z,11.50
2023-05-06T13:03:42.159Z,11.50
2023-05-06T13:06:34.359Z,12.50
2023-05-06T13:09:15.750Z,11.90
2023-05-06T13:12:08.753Z,12.30
2023-05-06T13:15:00.822Z,13.00
2023-05-06T13:17:53.132Z,12.20
2023-05-06T13:20:45.948Z,15.00
2023-05-06T13:23:40.091Z,14.70
2023-05-06T13:26:32.152Z,18.00
2023-05-06T13:29:24.549Z,15.60
2023-05-06T13:32:16.547Z,17.20
2023-05-06T13:34:51.518Z,18.90
2023-05-06T13:37:43.423Z,18.90
2023-05-06T13:40:35.444Z,20.90
2023-05-06T13:43:17.088Z,20.90
2023-05-06T13:46:10.503Z,24.50
2023-05-06T13:48:42.439Z,20.70
2023-05-06T13:51:14.543Z,19.00
2023-05-06T13:54:06.753Z,19.80
2023-05-06T13:56:47.872Z,16.10
2023-05-06T13:59:39.961Z,15.20
2023-05-06T14:02:32.393Z,13.00
2023-05-06T14:05:24.584Z,13.00
2023-05-06T14:08:16.703Z,15.00
2023-05-06T14:11:10.143Z,16.00
2023-05-06T14:14:02.437Z,17.30
2023-05-06T14:16:55.554Z,17.50
2023-05-06T14:19:47.571Z,18.40
2023-05-06T14:22:41.003Z,17.90
2023-05-06T14:25:33.016Z,17.60
2023-05-06T14:28:25.294Z,22.80
2023-05-06T14:31:10.407Z,22.70
2023-05-06T14:34:02.745Z,27.60
2023-05-06T14:36:55.012Z,25.30
2023-05-06T14:39:47.037Z,24.30
2023-05-06T14:42:39.244Z,20.10
2023-05-06T14:45:31.288Z,24.20
2023-05-06T14:48:25.309Z,22.10
2023-05-06T14:51:14.765Z,21.40
2023-05-06T14:54:07.150Z,27.40
2023-05-06T14:56:49.380Z,25.90
2023-05-06T14:59:41.496Z,20.80
2023-05-06T15:02:33.758Z,23.80
2023-05-06T15:05:26.157Z,24.60
2023-05-06T15:08:01.384Z,23.90
2023-05-06T15:10:44.700Z,25.30
2023-05-06T15:13:36.906Z,21.70
2023-05-06T15:16:11.406Z,27.00
2023-05-06T15:18:54.149Z,28.30
2023-05-06T15:21:31.347Z,25.30
2023-05-06T15:24:23.829Z,20.10
2023-05-06T15:27:15.907Z,21.60
2023-05-06T15:30:09.873Z,19.10
2023-05-06T15:33:02.882Z,18.70
2023-05-06T15:35:55.091Z,18.00
2023-05-06T15:38:57.123Z,18.10
2023-05-06T15:41:52.159Z,12.90
2023-05-06T15:44:27.367Z,15.90
2023-05-06T15:47:19.422Z,17.50
2023-05-06T15:50:24.716Z,17.30
2023-05-06T15:53:24.618Z,16.40
2023-05-06T15:56:18.832Z,18.20
2023-05-06T15:59:12.255Z,17.90
2023-05-06T16:07:33.464Z,18.60
2023-05-06T16:10:25.829Z,19.70
2023-05-06T16:13:17.838Z,20.40
2023-05-06T16:15:55.230Z,16.30
2023-05-06T16:18:47.232Z,21.50
2023-05-06T16:21:21.906Z,19.00
2023-05-06T16:24:14.021Z,19.10
2023-05-06T16:27:06.401Z,20.80
2023-05-06T16:29:38.553Z,19.40
2023-05-06T16:32:30.674Z,17.80
2023-05-06T16:35:13.268Z,20.60
2023-05-06T16:37:55.114Z,19.10
2023-05-06T16:40:43.378Z,21.20
2023-05-06T16:43:35.526Z,20.00
2023-05-06T16:46:16.518Z,20.00
2023-05-06T16:48:57.607Z,25.10
2023-05-06T16:51:49.893Z,20.90
2023-05-06T16:54:41.918Z,22.80
2023-05-06T16:57:33.893Z,19.80
2023-05-06T17:00:16.480Z,20.30
2023-05-06T17:02:51.225Z,18.40
2023-05-06T17:05:43.289Z,21.20
2023-05-06T17:08:36.885Z,21.90
2023-05-06T17:11:29.434Z,19.90
2023-05-06T17:14:21.986Z,21.70
2023-05-06T17:19:58.239Z,19.50
2023-05-06T17:22:50.387Z,22.20
2023-05-06T17:25:42.373Z,20.40
2023-05-06T17:28:34.356Z,20.90
2023-05-06T17:31:11.914Z,21.70
2023-05-06T17:33:53.088Z,20.80
2023-05-06T17:36:45.065Z,20.50
2023-05-06T17:39:38.284Z,19.80
2023-05-06T17:42:19.419Z,25.30
2023-05-06T17:45:13.094Z,23.60
2023-05-06T17:47:53.803Z,24.40
2023-05-06T17:50:45.870Z,24.00
2023-05-06T17:53:29.688Z,28.30
2023-05-06T17:56:04.672Z,28.50
2023-05-06T17:58:36.639Z,24.80
2023-05-06T18:01:28.770Z,24.40
2023-05-06T18:04:03.860Z,24.30
2023-05-06T18:06:57.086Z,22.10
2023-05-06T18:09:51.959Z,25.50
2023-05-06T18:12:45.419Z,24.60
2023-05-06T18:15:38.037Z,26.30
2023-05-06T18:18:30.298Z,22.70
2023-05-06T18:21:22.394Z,25.30
2023-05-06T18:24:10.177Z,26.70
2023-05-06T18:29:59.183Z,25.10
2023-05-06T18:32:49.319Z,24.10
2023-05-06T18:35:33.073Z,25.70
2023-05-06T18:38:26.531Z,25.20
2023-05-06T18:41:18.480Z,25.70
2023-05-06T18:44:10.435Z,24.10
2023-05-06T18:47:02.691Z,23.00
2023-05-06T18:49:54.759Z,24.20
2023-05-06T18:52:46.835Z,26.50
2023-05-06T18:55:38.948Z,29.00
2023-05-06T18:58:30.961Z,28.40
2023-05-06T19:01:11.300Z,28.40
2023-05-06T19:04:03.364Z,25.10
2023-05-06T19:06:55.489Z,23.90
2023-05-06T19:09:37.215Z,23.50
2023-05-06T19:12:30.566Z,20.70
2023-05-06T19:15:05.905Z,21.30
2023-05-06T19:17:58.055Z,17.90
2023-05-06T19:20:50.313Z,19.70
2023-05-06T19:23:27.549Z,17.70
2023-05-06T19:26:02.759Z,19.40
2023-05-06T19:28:55.873Z,22.60
2023-05-06T19:31:47.982Z,21.70
2023-05-06T19:34:40.230Z,19.70
2023-05-06T19:37:14.972Z,17.30
2023-05-06T19:40:09.078Z,21.40
2023-05-06T19:43:03.816Z,17.30
2023-05-06T19:45:39.025Z,20.70
2023-05-06T19:48:31.063Z,20.80
2023-05-06T19:51:23.190Z,20.50
2023-05-06T19:54:15.366Z,21.70
2023-05-06T19:57:07.506Z,21.50
2023-05-06T20:02:41.121Z,22.40
2023-05-06T20:05:33.388Z,22.60
2023-05-06T20:08:26.086Z,20.80
2023-05-06T20:11:18.167Z,22.70
2023-05-06T20:14:10.290Z,23.10
2023-05-06T20:17:02.911Z,19.10
2023-05-06T20:19:57.265Z,22.20
2023-05-06T20:22:49.402Z,21.50
2023-05-06T20:25:27.542Z,22.70
2023-05-06T20:28:03.590Z,21.90
2023-05-06T20:30:59.783Z,23.30
2023-05-06T20:33:37.269Z,19.10
2023-05-06T20:36:29.814Z,18.60
2023-05-06T20:39:22.013Z,16.40
2023-05-06T20:42:13.998Z,19.50
2023-05-06T20:44:57.406Z,17.40
2023-05-06T20:47:34.898Z,18.30
2023-05-06T20:50:28.658Z,16.00
2023-05-06T20:53:20.752Z,23.10
2023-05-06T20:55:55.893Z,33.80
2023-05-06T20:58:47.928Z,19.40
2023-05-06T21:01:40.160Z,19.80
2023-05-06T21:04:32.794Z,22.10
2023-05-06T21:07:24.834Z,21.90
2023-05-06T21:10:16.903Z,19.20
2023-05-06T21:13:09.131Z,18.60
2023-05-06T21:16:01.228Z,19.30
2023-05-06T21:18:53.255Z,20.90
2023-05-06T21:21:45.428Z,16.60
2023-05-06T21:24:37.617Z,18.40
2023-05-06T21:27:29.723Z,19.10
2023-05-06T21:30:22.534Z,16.50
2023-05-06T21:33:08.302Z,17.30
2023-05-06T21:36:00.549Z,19.10
2023-05-06T21:39:08.927Z,20.00
2023-05-06T21:42:01.048Z,17.90
2023-05-06T21:44:53.041Z,18.90
2023-05-06T21:47:25.421Z,13.10
2023-05-06T21:50:17.700Z,10.90
2023-05-06T21:53:10.075Z,8.80
2023-05-06T21:56:02.100Z,8.60
2023-05-06T21:58:55.715Z,8.50
2023-05-06T22:01:48.208Z,7.40
2023-05-06T22:04:40.326Z,9.00
2023-05-06T22:07:32.390Z,10.00
2023-05-06T22:10:24.672Z,20.60
2023-05-06T22:13:06.019Z,12.60
2023-05-06T22:15:58.178Z,14.40
2023-05-06T22:18:51.826Z,86.60
2023-05-06T22:21:43.955Z,48.50
2023-05-06T22:24:36.141Z,43.00
2023-05-06T22:27:28.241Z,84.90
2023-05-06T22:30:20.471Z,57.50
2023-05-06T22:33:12.480Z,82.80
2023-05-06T22:36:04.658Z,36.30
2023-05-06T22:38:39.149Z,69.70
2023-05-06T22:41:32.047Z,73.10
2023-05-06T22:44:24.059Z,73.40
2023-05-06T22:47:16.479Z,42.00
2023-05-06T22:50:10.548Z,16.10
2023-05-06T22:53:10.216Z,11.20
2023-05-06T22:56:06.366Z,10.50
2023-05-06T22:58:58.305Z,25.40
2023-05-06T23:01:50.304Z,17.20
2023-05-06T23:04:42.309Z,14.20
2023-05-06T23:07:34.468Z,12.50
2023-05-06T23:10:16.662Z,18.40
2023-05-06T23:13:08.711Z,19.40
2023-05-06T23:16:00.795Z,15.30
2023-05-06T23:18:48.988Z,16.00
2023-05-06T23:21:41.484Z,13.50
2023-05-06T23:24:33.487Z,20.40
2023-05-06T23:27:25.668Z,21.50
2023-05-06T23:30:17.927Z,16.90
2023-05-06T23:33:09.953Z,24.00
2023-05-06T23:36:03.397Z,21.00
2023-05-06T23:38:55.335Z,31.70
2023-05-06T23:41:47.331Z,19.00
2023-05-06T23:44:39.440Z,20.90
2023-05-06T23:47:31.453Z,25.40
2023-05-06T23:50:23.432Z,28.30
2023-05-06T23:53:16.331Z,17.60
2023-05-06T23:56:09.522Z,17.90
2023-05-06T23:59:01.568Z,16.00
